MSC Fabiola — A8VL5 — position and weather

sailwx.info

Track history (hours):
 
Tides and Currents Weather Stations Pressure Air Temp Water Temp Dewpoint Dewpoint Depression Visibility Wind Speed Wind Dir Waves Ship Positions

MSC Fabiola

Last reported at 2014-Jul-30 22:33 UTC. Time now 2014-Jul-31 21:42 UTC.
Position N 39°55' W 009°50'.

Length 366 m; draft 14.6 m.

Type: Ship. MMSI: 636092019.

Date/timePositionNaut miles runAvg speedWind from/ knotsBaromVisibWave heightAir tempDewpointWater temp
2014-Jul-30 22:33N 39°55' W 009°50'2116.7
2014-Jul-30 21:18N 39°34' W 009°51'1516.4
2014-Jul-30 20:25N 39°20' W 009°51'1416.2
2014-Jul-30 19:33N 39°06' W 009°51'1716.3
2014-Jul-30 18:32N 38°49' W 009°52'1616.6
2014-Jul-30 17:33N 38°33' W 009°49'1716.8
2014-Jul-30 16:32N 38°16' W 009°44'1616.6
2014-Jul-30 15:33N 38°00' W 009°39'1716.8
2014-Jul-30 14:33N 37°44' W 009°34'1716.5
2014-Jul-30 13:32N 37°28' W 009°29'1716.6
2014-Jul-30 12:32N 37°12' W 009°25'3415.6
2014-Jul-30 10:21N 36°43' W 009°02'2016.4
2014-Jul-30 09:09N 36°36' W 008°39'1016.6
2014-Jul-30 08:31N 36°32' W 008°27'1616.8
2014-Jul-30 07:33N 36°27' W 008°08'1917.2
2014-Jul-30 06:27N 36°22' W 007°45'1517.0
2014-Jul-30 05:33N 36°17' W 007°27'1818.0
2014-Jul-30 04:33N 36°11' W 007°06'1818.0
2014-Jul-30 03:33N 36°05' W 006°45'2518.0
2014-Jul-30 02:12N 35°58' W 006°16'3318.4
2014-Jul-30 00:25N 35°58' W 005°36'37315.6
2014-Jul-29 00:34N 37°17' E 001°59'1816.3
2014-Jul-28 23:26N 37°22' E 002°21'3916.4
2014-Jul-28 21:04N 37°30' E 003°09'916.4
2014-Jul-28 20:30N 37°31' E 003°20'1616.6
2014-Jul-28 19:33N 37°32' E 003°40'1716.9
2014-Jul-28 18:33N 37°32' E 004°02'1817.2
2014-Jul-28 17:32N 37°33' E 004°24'2019.8
2014-Jul-28 16:31N 37°34' E 004°49'2220.0
2014-Jul-28 15:26N 37°35' E 005°16'19319.5
2014-Jul-28 05:33N 37°42' E 009°20'1818.4
2014-Jul-28 04:33N 37°40' E 009°43'1918.7
2014-Jul-28 03:33N 37°38' E 010°06'1918.4
2014-Jul-28 02:33N 37°36' E 010°29'2418.6
2014-Jul-28 01:17N 37°31' E 010°58'9019.0
2014-Jul-27 20:32N 36°53' E 012°41'1919.3
2014-Jul-27 19:34N 36°47' E 013°04'1919.0
2014-Jul-27 18:34N 36°42' E 013°27'1918.9
2014-Jul-27 17:34N 36°37' E 013°49'1918.9
2014-Jul-27 16:34N 36°31' E 014°11'1919.4
2014-Jul-27 15:34N 36°26' E 014°35'1918.8
2014-Jul-27 14:34N 36°19' E 014°56'1919.1
2014-Jul-27 13:33N 36°14' E 015°19'  
Track history (hours):
 
Tides and Currents Weather Stations Pressure Air Temp Water Temp Dewpoint Dewpoint Depression Visibility Wind Speed Wind Dir Waves Ship Positions

MSC Fabiola

Last reported at 2014-Jul-30 22:33 UTC. Time now 2014-Jul-31 21:42 UTC.
Position N 39°55' W 009°50'.

Length 366 m; draft 14.6 m.

Type: Ship. MMSI: 636092019.

Date/timePositionNaut miles runAvg speedWind from/ knotsBaromVisibWave heightAir tempDewpointWater temp
2014-Jul-30 22:33N 39°55' W 009°50'2116.7
2014-Jul-30 21:18N 39°34' W 009°51'1516.4
2014-Jul-30 20:25N 39°20' W 009°51'1416.2
2014-Jul-30 19:33N 39°06' W 009°51'1716.3
2014-Jul-30 18:32N 38°49' W 009°52'1616.6
2014-Jul-30 17:33N 38°33' W 009°49'1716.8
2014-Jul-30 16:32N 38°16' W 009°44'1616.6
2014-Jul-30 15:33N 38°00' W 009°39'1716.8
2014-Jul-30 14:33N 37°44' W 009°34'1716.5
2014-Jul-30 13:32N 37°28' W 009°29'1716.6
2014-Jul-30 12:32N 37°12' W 009°25'3415.6
2014-Jul-30 10:21N 36°43' W 009°02'2016.4
2014-Jul-30 09:09N 36°36' W 008°39'1016.6
2014-Jul-30 08:31N 36°32' W 008°27'1616.8
2014-Jul-30 07:33N 36°27' W 008°08'1917.2
2014-Jul-30 06:27N 36°22' W 007°45'1517.0
2014-Jul-30 05:33N 36°17' W 007°27'1818.0
2014-Jul-30 04:33N 36°11' W 007°06'1818.0
2014-Jul-30 03:33N 36°05' W 006°45'2518.0
2014-Jul-30 02:12N 35°58' W 006°16'3318.4
2014-Jul-30 00:25N 35°58' W 005°36'37315.6
2014-Jul-29 00:34N 37°17' E 001°59'1816.3
2014-Jul-28 23:26N 37°22' E 002°21'3916.4
2014-Jul-28 21:04N 37°30' E 003°09'916.4
2014-Jul-28 20:30N 37°31' E 003°20'1616.6
2014-Jul-28 19:33N 37°32' E 003°40'1716.9
2014-Jul-28 18:33N 37°32' E 004°02'1817.2
2014-Jul-28 17:32N 37°33' E 004°24'2019.8
2014-Jul-28 16:31N 37°34' E 004°49'2220.0
2014-Jul-28 15:26N 37°35' E 005°16'19319.5
2014-Jul-28 05:33N 37°42' E 009°20'1818.4
2014-Jul-28 04:33N 37°40' E 009°43'1918.7
2014-Jul-28 03:33N 37°38' E 010°06'1918.4
2014-Jul-28 02:33N 37°36' E 010°29'2418.6
2014-Jul-28 01:17N 37°31' E 010°58'9019.0
2014-Jul-27 20:32N 36°53' E 012°41'1919.3
2014-Jul-27 19:34N 36°47' E 013°04'1919.0
2014-Jul-27 18:34N 36°42' E 013°27'1918.9
2014-Jul-27 17:34N 36°37' E 013°49'1918.9
2014-Jul-27 16:34N 36°31' E 014°11'1919.4
2014-Jul-27 15:34N 36°26' E 014°35'1918.8
2014-Jul-27 14:34N 36°19' E 014°56'1919.1
2014-Jul-27 13:33N 36°14' E 015°19'  

Dump ship's entire track history